createdAt,value
2018-06-28T00:00:14.275Z,16.37
2018-06-28T00:01:18.676Z,16.36
2018-06-28T00:02:21.899Z,16.42
2018-06-28T00:03:24.679Z,16.48
2018-06-28T00:04:27.925Z,16.41
2018-06-28T00:05:30.721Z,16.41
2018-06-28T00:06:34.664Z,16.48
2018-06-28T00:07:37.444Z,16.53
2018-06-28T00:08:40.298Z,16.48
2018-06-28T00:09:43.646Z,16.45
2018-06-28T00:10:47.058Z,16.42
2018-06-28T00:11:50.839Z,16.43
2018-06-28T00:12:53.855Z,16.45
2018-06-28T00:13:56.704Z,16.46
2018-06-28T00:14:59.486Z,16.47
2018-06-28T00:16:02.265Z,16.41
2018-06-28T00:17:06.591Z,16.27
2018-06-28T00:18:09.413Z,16.21
2018-06-28T00:19:12.238Z,16.06
2018-06-28T00:20:15.832Z,15.97
2018-06-28T00:21:18.653Z,15.78
2018-06-28T00:22:23.631Z,15.16
2018-06-28T00:23:27.489Z,15.05
2018-06-28T00:24:30.311Z,15.27
2018-06-28T00:25:33.079Z,15.26
2018-06-28T00:26:36.421Z,15.40
2018-06-28T00:27:39.833Z,15.49
2018-06-28T00:28:42.681Z,15.59
2018-06-28T00:29:45.999Z,15.64
2018-06-28T00:30:48.758Z,15.68
2018-06-28T00:31:51.566Z,15.68
2018-06-28T00:32:54.366Z,15.74
2018-06-28T00:33:57.737Z,15.82
2018-06-28T00:35:00.550Z,15.86
2018-06-28T00:36:03.842Z,15.90
2018-06-28T00:37:06.633Z,15.97
2018-06-28T00:38:10.827Z,15.98
2018-06-28T00:39:14.443Z,15.84
2018-06-28T00:40:18.249Z,15.82
2018-06-28T00:41:21.061Z,15.75
2018-06-28T00:42:24.347Z,15.81
2018-06-28T00:43:27.293Z,15.86
2018-06-28T00:44:30.097Z,15.80
2018-06-28T00:45:32.953Z,15.75
2018-06-28T00:46:35.731Z,15.78
2018-06-28T00:47:38.518Z,15.74
2018-06-28T00:48:42.579Z,15.63
2018-06-28T00:49:45.401Z,15.61
2018-06-28T00:50:48.214Z,15.70
2018-06-28T00:51:52.565Z,15.80
2018-06-28T00:52:55.359Z,15.70
2018-06-28T00:53:58.161Z,15.69
2018-06-28T00:55:01.467Z,15.62
2018-06-28T00:56:04.426Z,15.57
2018-06-28T00:57:07.203Z,15.17
2018-06-28T00:58:10.030Z,14.85
2018-06-28T00:59:13.647Z,14.79
2018-06-28T01:00:16.542Z,14.66
2018-06-28T01:01:19.755Z,14.26
2018-06-28T01:02:22.522Z,14.16
2018-06-28T01:03:25.273Z,14.31
2018-06-28T01:04:28.049Z,14.64
2018-06-28T01:05:30.819Z,14.85
2018-06-28T01:06:33.576Z,14.93
2018-06-28T01:07:36.767Z,15.04
2018-06-28T01:08:39.567Z,15.15
2018-06-28T01:09:42.325Z,15.18
2018-06-28T01:10:45.729Z,15.22
2018-06-28T01:11:48.508Z,15.29
2018-06-28T01:12:51.277Z,15.31
2018-06-28T01:13:54.381Z,15.23
2018-06-28T01:14:57.190Z,15.24
2018-06-28T01:15:59.954Z,15.21
2018-06-28T01:17:02.740Z,15.16
2018-06-28T01:18:05.593Z,15.11
2018-06-28T01:19:08.826Z,15.02
2018-06-28T01:20:12.059Z,14.95
2018-06-28T01:21:18.505Z,14.93
2018-06-28T01:22:21.418Z,14.83
2018-06-28T01:23:24.196Z,14.88
2018-06-28T01:24:27.523Z,14.75
2018-06-28T01:25:39.593Z,14.75
2018-06-28T01:26:42.390Z,14.82
2018-06-28T01:27:45.210Z,14.81
2018-06-28T01:28:47.966Z,14.90
2018-06-28T01:29:50.728Z,14.94
2018-06-28T01:30:53.628Z,14.89
2018-06-28T01:31:56.785Z,14.98
2018-06-28T01:32:59.570Z,15.05
2018-06-28T01:34:02.362Z,15.09
2018-06-28T01:35:05.211Z,15.08
2018-06-28T01:36:07.992Z,15.10
2018-06-28T01:37:10.760Z,15.11
2018-06-28T01:38:14.037Z,15.18
2018-06-28T01:39:16.811Z,15.12
2018-06-28T01:40:19.700Z,15.13
2018-06-28T01:41:22.525Z,15.14
2018-06-28T01:42:25.311Z,15.07
2018-06-28T01:43:28.083Z,15.05
2018-06-28T01:44:31.224Z,15.00
2018-06-28T01:45:33.996Z,14.98
2018-06-28T01:46:36.773Z,15.03
2018-06-28T01:47:42.157Z,15.05
2018-06-28T01:48:45.047Z,15.00
2018-06-28T01:49:47.825Z,14.96
2018-06-28T01:50:51.004Z,14.86
2018-06-28T01:51:53.800Z,14.71
2018-06-28T01:52:56.626Z,14.68
2018-06-28T01:53:59.378Z,14.62
2018-06-28T01:55:02.239Z,14.60
2018-06-28T01:56:05.114Z,14.57
2018-06-28T01:57:08.380Z,14.56
2018-06-28T01:58:11.170Z,14.55
2018-06-28T01:59:15.441Z,14.61
2018-06-28T02:00:18.234Z,14.74
2018-06-28T02:01:21.029Z,14.60
2018-06-28T02:02:23.825Z,14.50
2018-06-28T02:03:27.051Z,14.40
2018-06-28T02:04:29.869Z,14.27
2018-06-28T02:05:32.689Z,14.21
2018-06-28T02:06:35.491Z,14.34
2018-06-28T02:07:38.252Z,14.40
2018-06-28T02:08:41.052Z,14.45
2018-06-28T02:09:44.284Z,14.53
2018-06-28T02:10:47.098Z,14.60
2018-06-28T02:11:49.895Z,14.55
2018-06-28T02:12:52.686Z,14.47
2018-06-28T02:13:55.458Z,14.40
2018-06-28T02:14:58.269Z,14.37
2018-06-28T02:16:01.526Z,14.45
2018-06-28T02:17:04.532Z,14.46
2018-06-28T02:18:07.623Z,14.54
2018-06-28T02:19:10.437Z,14.50
2018-06-28T02:20:13.267Z,14.50
2018-06-28T02:21:16.078Z,14.52
2018-06-28T02:22:19.173Z,14.62
2018-06-28T02:23:21.963Z,14.58
2018-06-28T02:24:24.753Z,14.48
2018-06-28T02:25:27.709Z,14.40
2018-06-28T02:26:30.494Z,14.44
2018-06-28T02:27:33.297Z,14.38
2018-06-28T02:28:36.432Z,14.42
2018-06-28T02:29:39.224Z,14.41
2018-06-28T02:30:43.113Z,14.48
2018-06-28T02:31:45.863Z,14.55
2018-06-28T02:32:48.707Z,14.55
2018-06-28T02:33:51.504Z,14.56
2018-06-28T02:34:54.752Z,14.55
2018-06-28T02:35:57.556Z,14.54
2018-06-28T02:37:00.364Z,14.53
2018-06-28T02:38:03.151Z,14.55
2018-06-28T02:39:05.942Z,14.42
2018-06-28T02:40:08.775Z,14.35
2018-06-28T02:41:11.918Z,14.31
2018-06-28T02:42:14.726Z,14.30
2018-06-28T02:43:17.472Z,14.32
2018-06-28T02:44:20.248Z,14.34
2018-06-28T02:45:23.042Z,14.40
2018-06-28T02:46:26.538Z,14.41
2018-06-28T02:47:29.890Z,14.31
2018-06-28T02:48:32.695Z,14.25
2018-06-28T02:49:35.503Z,14.27
2018-06-28T02:50:38.310Z,14.29
2018-06-28T02:51:41.161Z,14.27
2018-06-28T02:52:43.954Z,14.18
2018-06-28T02:53:46.737Z,13.96
2018-06-28T02:54:49.787Z,13.88
2018-06-28T02:55:52.573Z,13.91
2018-06-28T02:56:55.361Z,13.82
2018-06-28T02:57:58.326Z,13.66
2018-06-28T02:59:01.590Z,13.52
2018-06-28T03:00:04.355Z,13.58
2018-06-28T03:01:07.159Z,13.45
2018-06-28T03:02:09.939Z,13.36
2018-06-28T03:03:12.745Z,13.18
2018-06-28T03:04:15.562Z,13.23
2018-06-28T03:05:18.826Z,12.98
2018-06-28T03:06:22.305Z,12.76
2018-06-28T03:08:33.838Z,12.59
2018-06-28T03:09:36.867Z,12.70
2018-06-28T03:10:39.671Z,12.74
2018-06-28T03:11:43.440Z,12.55
2018-06-28T03:12:46.557Z,12.69
2018-06-28T03:13:49.811Z,12.62
2018-06-28T03:14:52.641Z,12.68
2018-06-28T03:15:55.822Z,12.42
2018-06-28T03:16:58.977Z,12.27
2018-06-28T03:18:03.324Z,12.18
2018-06-28T03:19:06.685Z,12.21
2018-06-28T03:20:09.497Z,12.34
2018-06-28T03:21:12.376Z,12.48
2018-06-28T03:22:15.214Z,12.54
2018-06-28T03:23:17.997Z,12.51
2018-06-28T03:24:21.167Z,12.62
2018-06-28T03:25:23.944Z,12.81
2018-06-28T03:26:26.964Z,13.09
2018-06-28T03:27:29.858Z,13.25
2018-06-28T03:28:32.660Z,13.32
2018-06-28T03:29:35.488Z,13.29
2018-06-28T03:30:38.706Z,13.22
2018-06-28T03:31:41.721Z,13.14
2018-06-28T03:32:44.519Z,13.10
2018-06-28T03:33:47.516Z,13.13
2018-06-28T03:34:50.760Z,13.21
2018-06-28T03:35:53.637Z,13.28
2018-06-28T03:36:57.975Z,13.35
2018-06-28T03:38:00.901Z,13.44
2018-06-28T03:39:03.983Z,13.50
2018-06-28T03:40:06.803Z,13.52
2018-06-28T03:41:09.653Z,13.48
2018-06-28T03:42:12.469Z,13.42
2018-06-28T03:43:15.241Z,13.40
2018-06-28T03:44:18.427Z,13.45
2018-06-28T03:45:21.488Z,13.48
2018-06-28T03:46:24.285Z,13.49
2018-06-28T03:47:28.400Z,13.52
2018-06-28T03:48:31.735Z,13.51
2018-06-28T03:49:34.992Z,13.51
2018-06-28T03:50:37.791Z,13.55
2018-06-28T03:51:41.187Z,13.51
2018-06-28T03:52:47.806Z,13.52
2018-06-28T03:53:51.438Z,13.52
2018-06-28T03:54:54.596Z,13.46
2018-06-28T03:55:57.391Z,13.45
2018-06-28T03:57:00.271Z,13.48
2018-06-28T03:58:04.282Z,13.45
2018-06-28T03:59:07.075Z,13.40
2018-06-28T04:00:09.870Z,13.39
2018-06-28T04:01:13.228Z,13.33
2018-06-28T04:02:16.067Z,13.10
2018-06-28T04:03:18.956Z,13.07
2018-06-28T04:04:22.247Z,13.24
2018-06-28T04:05:25.038Z,13.33
2018-06-28T04:06:27.887Z,13.32
2018-06-28T04:07:31.057Z,13.32
2018-06-28T04:08:34.274Z,13.33
2018-06-28T04:09:37.407Z,13.38
2018-06-28T04:10:41.069Z,13.47
2018-06-28T04:11:44.086Z,13.57
2018-06-28T04:12:47.465Z,13.59
2018-06-28T04:13:50.273Z,13.46
2018-06-28T04:14:53.210Z,13.39
2018-06-28T04:15:56.053Z,13.08
2018-06-28T04:16:59.284Z,12.56
2018-06-28T04:18:02.357Z,12.51
2018-06-28T04:19:06.070Z,12.65
2018-06-28T04:20:08.987Z,12.88
2018-06-28T04:21:12.080Z,12.99
2018-06-28T04:22:19.390Z,13.10
2018-06-28T04:23:22.721Z,13.24
2018-06-28T04:24:26.238Z,13.39
2018-06-28T04:25:29.903Z,13.44
2018-06-28T04:26:32.987Z,13.28
2018-06-28T04:27:36.104Z,13.30
2018-06-28T04:28:39.276Z,13.40
2018-06-28T04:29:42.957Z,13.46
2018-06-28T04:30:46.179Z,13.55
2018-06-28T04:31:49.329Z,13.59
2018-06-28T04:32:52.328Z,13.63
2018-06-28T04:33:55.124Z,13.62
2018-06-28T04:34:57.931Z,13.65
2018-06-28T04:36:02.111Z,13.65
2018-06-28T04:37:05.607Z,13.65
2018-06-28T04:38:08.691Z,13.76
2018-06-28T04:39:13.335Z,13.74
2018-06-28T04:40:16.535Z,13.72
2018-06-28T04:41:19.568Z,13.74
2018-06-28T04:42:22.555Z,13.69
2018-06-28T04:43:26.168Z,13.63
2018-06-28T04:44:29.296Z,13.57
2018-06-28T04:45:32.493Z,13.69
2018-06-28T04:46:35.691Z,13.69
2018-06-28T04:47:38.825Z,13.60
2018-06-28T04:48:41.778Z,13.75
2018-06-28T04:49:45.824Z,13.87
2018-06-28T04:50:48.716Z,13.77
2018-06-28T04:51:51.756Z,13.86
2018-06-28T04:52:54.818Z,14.01
2018-06-28T04:53:57.609Z,14.14
2018-06-28T04:55:00.720Z,14.10
2018-06-28T04:56:05.392Z,14.03
2018-06-28T04:57:08.217Z,14.13
2018-06-28T04:58:11.517Z,14.23
2018-06-28T04:59:14.346Z,14.19
2018-06-28T05:00:17.133Z,14.12
2018-06-28T05:01:21.048Z,14.19
2018-06-28T05:02:24.297Z,14.23
2018-06-28T05:03:27.097Z,14.26
2018-06-28T05:04:29.934Z,14.32
2018-06-28T05:05:33.689Z,14.43
2018-06-28T05:06:36.498Z,14.59
2018-06-28T05:07:39.373Z,14.58
2018-06-28T05:08:42.610Z,14.53
2018-06-28T05:09:45.393Z,14.46
2018-06-28T05:10:48.235Z,14.46
2018-06-28T05:11:51.048Z,14.38
2018-06-28T05:12:53.906Z,14.34
2018-06-28T05:13:56.719Z,14.31
2018-06-28T05:14:59.549Z,14.33
2018-06-28T05:16:02.351Z,14.31
2018-06-28T05:17:06.393Z,14.35
2018-06-28T05:18:11.227Z,14.25
2018-06-28T05:19:14.050Z,14.22
2018-06-28T05:20:19.272Z,14.26
2018-06-28T05:21:22.132Z,14.34
2018-06-28T05:22:25.978Z,14.43
2018-06-28T05:23:28.855Z,14.50
2018-06-28T05:24:31.655Z,14.36
2018-06-28T05:25:34.468Z,14.23
2018-06-28T05:26:37.750Z,14.31
2018-06-28T05:27:40.562Z,14.36
2018-06-28T05:28:43.415Z,14.43
2018-06-28T05:29:46.443Z,14.56
2018-06-28T05:30:49.258Z,14.68
2018-06-28T05:31:52.068Z,14.82
2018-06-28T05:32:55.473Z,14.88
2018-06-28T05:33:58.542Z,14.99
2018-06-28T05:35:01.372Z,15.11
2018-06-28T05:36:04.207Z,15.18
2018-06-28T05:37:07.088Z,15.13
2018-06-28T05:38:09.903Z,15.14
2018-06-28T05:39:13.146Z,15.19
2018-06-28T05:40:15.932Z,15.21
2018-06-28T05:41:18.778Z,15.19
2018-06-28T05:42:22.223Z,15.25
2018-06-28T05:43:25.022Z,15.33
2018-06-28T05:44:28.302Z,15.39
2018-06-28T05:45:31.651Z,15.33
2018-06-28T05:46:38.136Z,15.29
2018-06-28T05:47:44.153Z,15.33
2018-06-28T05:48:47.898Z,15.35
2018-06-28T05:49:51.370Z,15.29
2018-06-28T05:50:58.788Z,15.29
2018-06-28T05:52:02.057Z,15.32
2018-06-28T05:53:04.939Z,15.37
2018-06-28T05:54:07.764Z,15.52
2018-06-28T05:55:11.406Z,15.64
2018-06-28T05:56:14.218Z,15.64
2018-06-28T05:57:17.641Z,15.63
2018-06-28T05:58:20.952Z,15.56
2018-06-28T05:59:23.792Z,15.64
2018-06-28T06:00:26.584Z,15.76
2018-06-28T06:01:29.403Z,15.88
2018-06-28T06:02:33.289Z,15.99
2018-06-28T06:03:36.130Z,16.09
2018-06-28T06:04:39.424Z,16.06
2018-06-28T06:05:42.227Z,16.03
2018-06-28T06:06:45.016Z,16.08
2018-06-28T06:07:48.403Z,16.15
2018-06-28T06:08:52.218Z,16.32
2018-06-28T06:09:55.058Z,16.38
2018-06-28T06:10:58.164Z,16.50
2018-06-28T06:12:01.038Z,16.62
2018-06-28T06:13:03.851Z,16.75
2018-06-28T06:14:06.646Z,16.84
2018-06-28T06:15:09.458Z,16.82
2018-06-28T06:16:12.292Z,16.85
2018-06-28T06:17:15.401Z,16.85
2018-06-28T06:18:18.211Z,16.82
2018-06-28T06:19:21.035Z,16.88
2018-06-28T06:20:24.584Z,16.95
2018-06-28T06:21:27.404Z,17.04
2018-06-28T06:22:30.215Z,17.10
2018-06-28T06:23:33.569Z,17.24
2018-06-28T06:24:36.802Z,17.38
2018-06-28T06:25:42.620Z,17.39
2018-06-28T06:26:45.421Z,17.36
2018-06-28T06:27:48.231Z,17.36
2018-06-28T06:28:51.048Z,17.35
2018-06-28T06:29:54.189Z,17.45
2018-06-28T06:30:56.978Z,17.56
2018-06-28T06:31:59.749Z,17.66
2018-06-28T06:33:03.282Z,17.76
2018-06-28T19:34:03.201Z,23.75
2018-06-28T21:47:58.486Z,21.85
2018-06-28T21:49:06.603Z,21.85
2018-06-28T21:50:25.417Z,21.78
2018-06-28T21:54:16.601Z,21.60
2018-06-28T21:55:20.964Z,21.56
2018-06-28T21:57:43.173Z,21.62
2018-06-28T22:03:54.502Z,21.62
2018-06-28T22:04:58.786Z,21.62
2018-06-28T22:06:15.687Z,21.60
2018-06-28T22:07:29.164Z,21.49
2018-06-28T22:13:20.033Z,21.51
2018-06-28T22:14:22.908Z,21.36
2018-06-28T22:15:28.756Z,21.37
2018-06-28T22:16:32.387Z,21.42
2018-06-28T22:17:36.367Z,21.44
2018-06-28T22:18:39.182Z,21.42
2018-06-28T22:19:55.361Z,21.50
2018-06-28T22:22:26.258Z,21.36
2018-06-28T22:23:38.457Z,21.23
2018-06-28T22:29:24.448Z,21.01
